createdAt,value
2022-09-30T00:01:25.638Z,4.47
2022-09-30T00:03:53.964Z,3.80
2022-09-30T00:06:20.993Z,4.50
2022-09-30T00:08:47.880Z,4.93
2022-09-30T00:11:17.649Z,3.70
2022-09-30T00:13:46.368Z,3.83
2022-09-30T00:16:14.495Z,6.00
2022-09-30T00:18:42.549Z,4.40
2022-09-30T00:21:10.517Z,5.13
2022-09-30T00:23:38.716Z,4.00
2022-09-30T00:26:08.048Z,6.20
2022-09-30T00:28:35.365Z,4.43
2022-09-30T00:31:05.276Z,4.00
2022-09-30T00:33:32.530Z,5.83
2022-09-30T00:35:59.397Z,3.93
2022-09-30T00:38:26.386Z,4.70
2022-09-30T00:40:54.008Z,3.60
2022-09-30T00:43:51.282Z,4.60
2022-09-30T00:46:43.637Z,5.47
2022-09-30T00:49:20.893Z,4.40
2022-09-30T00:51:52.098Z,4.17
2022-09-30T00:54:28.630Z,4.63
2022-09-30T00:57:00.356Z,3.47
2022-09-30T00:59:33.176Z,3.67
2022-09-30T01:02:01.486Z,4.80
2022-09-30T01:04:31.049Z,4.63
2022-09-30T01:07:04.557Z,4.77
2022-09-30T01:09:34.200Z,4.03
2022-09-30T01:12:05.310Z,2.87
2022-09-30T01:14:32.301Z,4.60
2022-09-30T01:17:17.069Z,3.70
2022-09-30T01:20:06.450Z,3.97
2022-09-30T01:22:54.374Z,4.07
2022-09-30T01:25:45.941Z,4.40
2022-09-30T01:28:42.761Z,3.20
2022-09-30T01:31:45.133Z,4.87
2022-09-30T01:34:20.813Z,3.60
2022-09-30T01:36:50.784Z,4.53
2022-09-30T01:39:51.209Z,3.13
2022-09-30T01:42:42.531Z,4.03
2022-09-30T01:45:28.216Z,4.27
2022-09-30T01:48:06.002Z,4.90
2022-09-30T01:50:52.012Z,4.90
2022-09-30T01:53:25.894Z,4.70
2022-09-30T01:56:02.485Z,3.63
2022-09-30T01:58:50.404Z,3.50
2022-09-30T02:01:25.382Z,3.43
2022-09-30T02:03:57.127Z,2.60
2022-09-30T02:06:31.832Z,2.33
2022-09-30T02:09:11.575Z,4.50
2022-09-30T02:11:40.587Z,3.87
2022-09-30T02:14:22.333Z,5.10
2022-09-30T02:16:52.468Z,4.83
2022-09-30T02:19:28.977Z,3.10
2022-09-30T02:21:59.956Z,3.23
2022-09-30T02:24:31.991Z,2.83
2022-09-30T02:27:01.722Z,3.13
2022-09-30T02:29:36.021Z,2.90
2022-09-30T02:32:13.310Z,2.20
2022-09-30T02:34:45.421Z,2.80
2022-09-30T02:37:20.052Z,2.87
2022-09-30T02:40:00.373Z,3.17
2022-09-30T02:42:30.186Z,2.80
2022-09-30T02:45:07.750Z,2.77
2022-09-30T02:47:49.576Z,3.30
2022-09-30T02:50:33.226Z,4.80
2022-09-30T02:53:24.521Z,5.23
2022-09-30T02:56:15.224Z,4.50
2022-09-30T02:58:43.415Z,5.17
2022-09-30T03:01:12.550Z,6.33
2022-09-30T03:03:41.816Z,7.30
2022-09-30T03:06:09.410Z,8.60
2022-09-30T03:08:37.004Z,8.17
2022-09-30T03:11:05.301Z,7.77
2022-09-30T03:13:46.156Z,4.40
2022-09-30T03:16:30.716Z,4.33
2022-09-30T03:19:25.114Z,4.37
2022-09-30T03:22:00.908Z,4.23
2022-09-30T03:24:53.693Z,2.90
2022-09-30T03:27:33.609Z,3.30
2022-09-30T03:30:13.730Z,3.07
2022-09-30T03:33:06.112Z,3.50
2022-09-30T03:35:32.925Z,3.63
2022-09-30T03:38:17.606Z,6.17
2022-09-30T03:41:25.737Z,4.67
2022-09-30T03:44:10.683Z,4.80
2022-09-30T03:46:44.936Z,4.00
2022-09-30T03:49:18.660Z,3.63
2022-09-30T03:51:45.826Z,3.47
2022-09-30T03:54:14.224Z,2.60
2022-09-30T03:56:44.365Z,2.70
2022-09-30T03:59:13.355Z,4.90
2022-09-30T04:01:40.043Z,2.60
2022-09-30T04:04:06.897Z,2.37
2022-09-30T04:06:34.251Z,2.70
2022-09-30T04:09:00.903Z,4.07
2022-09-30T04:11:27.667Z,3.43
2022-09-30T04:13:54.368Z,2.90
2022-09-30T04:16:21.359Z,3.47
2022-09-30T04:18:48.161Z,4.60
2022-09-30T04:21:15.876Z,5.13
2022-09-30T04:23:42.936Z,4.03
2022-09-30T04:26:14.885Z,3.93
2022-09-30T04:28:41.662Z,3.77
2022-09-30T04:31:10.223Z,4.20
2022-09-30T04:33:36.865Z,3.93
2022-09-30T04:36:04.303Z,3.70
2022-09-30T04:38:31.604Z,3.60
2022-09-30T04:41:01.576Z,3.80
2022-09-30T04:43:28.618Z,3.37
2022-09-30T04:45:55.563Z,3.10
2022-09-30T04:48:22.541Z,6.13
2022-09-30T04:50:50.310Z,2.80
2022-09-30T04:53:18.574Z,3.37
2022-09-30T04:55:46.290Z,3.27
2022-09-30T04:58:13.631Z,4.70
2022-09-30T05:00:40.873Z,3.10
2022-09-30T05:03:07.628Z,4.17
2022-09-30T05:05:34.645Z,2.90
2022-09-30T05:08:02.952Z,2.53
2022-09-30T05:10:30.442Z,3.17
2022-09-30T05:12:58.308Z,2.70
2022-09-30T05:15:25.723Z,2.13
2022-09-30T05:17:53.633Z,2.90
2022-09-30T05:20:21.480Z,2.70
2022-09-30T05:22:53.300Z,1.83
2022-09-30T05:25:20.042Z,2.07
2022-09-30T05:27:49.996Z,3.73
2022-09-30T05:30:17.307Z,2.93
2022-09-30T05:32:44.124Z,3.80
2022-09-30T05:35:12.156Z,4.33
2022-09-30T05:37:38.905Z,2.90
2022-09-30T05:40:06.657Z,3.73
2022-09-30T05:42:35.974Z,3.67
2022-09-30T05:45:06.585Z,4.87
2022-09-30T05:47:34.361Z,3.33
2022-09-30T05:50:01.211Z,3.47
2022-09-30T05:52:29.166Z,3.17
2022-09-30T05:54:57.826Z,3.50
2022-09-30T05:57:25.560Z,2.63
2022-09-30T05:59:52.193Z,3.37
2022-09-30T06:02:19.290Z,2.73
2022-09-30T06:04:46.957Z,1.87
2022-09-30T06:07:13.854Z,2.10
2022-09-30T06:09:40.816Z,3.10
2022-09-30T06:12:08.186Z,2.10
2022-09-30T06:14:34.959Z,1.87
2022-09-30T06:17:02.174Z,2.33
2022-09-30T06:19:30.218Z,2.87
2022-09-30T06:21:57.702Z,2.80
2022-09-30T06:24:24.764Z,2.90
2022-09-30T06:26:51.726Z,2.50
2022-09-30T06:29:19.493Z,5.23
2022-09-30T06:31:46.523Z,3.97
2022-09-30T06:34:13.764Z,4.67
2022-09-30T06:36:40.381Z,4.83
2022-09-30T06:39:10.251Z,6.33
2022-09-30T06:41:42.460Z,3.43
2022-09-30T06:44:12.521Z,4.73
2022-09-30T06:46:51.474Z,3.03
2022-09-30T06:49:21.258Z,2.90
2022-09-30T06:51:47.888Z,3.20
2022-09-30T06:54:14.557Z,3.87
2022-09-30T06:56:41.802Z,3.70
2022-09-30T06:59:08.655Z,4.30
2022-09-30T07:01:35.386Z,7.73
2022-09-30T07:04:07.888Z,4.87
2022-09-30T07:06:34.883Z,6.73
2022-09-30T07:09:01.552Z,3.57
2022-09-30T07:11:28.200Z,4.43
2022-09-30T07:13:55.535Z,4.07
2022-09-30T07:16:22.281Z,3.13
2022-09-30T07:18:49.057Z,4.23
2022-09-30T07:21:16.306Z,3.87
2022-09-30T07:23:47.872Z,3.30
2022-09-30T07:26:17.591Z,3.63
2022-09-30T07:28:45.012Z,4.50
2022-09-30T07:31:34.098Z,2.40
2022-09-30T07:34:03.522Z,2.97
2022-09-30T07:36:33.644Z,3.83
2022-09-30T07:39:05.362Z,4.30
2022-09-30T07:41:32.283Z,3.73
2022-09-30T07:43:59.600Z,4.30
2022-09-30T07:46:29.874Z,5.07
2022-09-30T07:49:02.205Z,4.73
2022-09-30T07:51:32.239Z,3.90
2022-09-30T07:54:02.205Z,7.23
2022-09-30T07:56:41.078Z,4.33
2022-09-30T07:59:17.187Z,4.67
2022-09-30T08:01:44.008Z,5.73
2022-09-30T08:04:12.069Z,4.13
2022-09-30T08:07:00.279Z,4.47
2022-09-30T08:09:29.372Z,4.33
2022-09-30T08:11:56.357Z,4.47
2022-09-30T08:14:25.824Z,4.57
2022-09-30T08:16:53.094Z,5.20
2022-09-30T08:19:23.200Z,6.13
2022-09-30T08:21:50.752Z,4.13
2022-09-30T08:24:17.445Z,3.83
2022-09-30T08:26:44.752Z,4.73
2022-09-30T08:29:20.134Z,4.67
2022-09-30T08:31:52.896Z,6.20
2022-09-30T08:34:19.730Z,3.92
2022-09-30T08:36:46.513Z,3.88
2022-09-30T08:39:13.773Z,4.25
2022-09-30T08:41:59.743Z,3.83
2022-09-30T08:44:41.124Z,3.85
2022-09-30T08:47:29.461Z,3.47
2022-09-30T08:50:17.477Z,3.75
2022-09-30T08:52:53.663Z,4.65
2022-09-30T08:55:41.989Z,4.85
2022-09-30T08:58:47.706Z,3.50
2022-09-30T09:01:17.093Z,4.80
2022-09-30T09:03:45.202Z,3.50
2022-09-30T09:06:33.282Z,4.57
2022-09-30T09:09:16.383Z,3.33
2022-09-30T09:12:06.222Z,4.13
2022-09-30T09:14:43.450Z,3.90
2022-09-30T09:17:47.042Z,2.35
2022-09-30T09:20:33.475Z,4.03
2022-09-30T09:23:03.677Z,3.33
2022-09-30T09:25:30.670Z,4.45
2022-09-30T09:28:02.932Z,2.97
2022-09-30T09:30:36.292Z,4.53
2022-09-30T09:33:26.174Z,4.78
2022-09-30T09:36:02.438Z,5.57
2022-09-30T09:38:55.546Z,4.00
2022-09-30T09:41:49.067Z,3.22
2022-09-30T09:44:28.371Z,3.75
2022-09-30T09:47:13.864Z,3.83
2022-09-30T09:49:58.886Z,2.83
2022-09-30T09:52:33.750Z,2.78
2022-09-30T09:55:00.801Z,2.65
2022-09-30T09:57:32.291Z,2.97
2022-09-30T10:00:23.844Z,2.78
2022-09-30T10:03:10.773Z,2.90
2022-09-30T10:05:40.974Z,2.65
2022-09-30T10:08:13.320Z,2.47
2022-09-30T10:10:52.373Z,4.28
2022-09-30T10:13:20.889Z,5.90
2022-09-30T10:15:48.852Z,2.90
2022-09-30T10:18:27.698Z,3.17
2022-09-30T10:20:57.811Z,2.75
2022-09-30T10:23:33.561Z,2.33
2022-09-30T10:26:15.611Z,2.85
2022-09-30T10:28:46.919Z,3.40
2022-09-30T10:31:26.691Z,4.43
2022-09-30T10:34:27.845Z,2.97
2022-09-30T10:36:56.281Z,3.60
2022-09-30T10:39:26.872Z,3.20
2022-09-30T10:42:04.943Z,6.05
2022-09-30T10:44:31.681Z,2.60
2022-09-30T10:47:02.683Z,2.70
2022-09-30T10:49:41.726Z,2.78
2022-09-30T10:52:18.976Z,2.85
2022-09-30T10:54:58.879Z,2.47
2022-09-30T10:57:32.220Z,2.95
2022-09-30T11:00:15.498Z,2.42
2022-09-30T11:02:58.822Z,2.35
2022-09-30T11:05:36.190Z,1.83
2022-09-30T11:08:14.679Z,3.33
2022-09-30T11:10:57.771Z,2.10
2022-09-30T11:13:47.829Z,2.33
2022-09-30T11:16:34.447Z,2.08
2022-09-30T11:19:07.595Z,1.85
2022-09-30T11:22:04.626Z,1.08
2022-09-30T11:24:50.213Z,1.60
2022-09-30T11:27:34.763Z,3.58
2022-09-30T11:30:35.651Z,1.45
2022-09-30T11:33:25.456Z,2.88
2022-09-30T11:36:01.095Z,2.67
2022-09-30T11:39:03.611Z,2.13
2022-09-30T11:42:11.644Z,1.42
2022-09-30T11:44:41.623Z,1.17
2022-09-30T11:47:23.729Z,1.00
2022-09-30T11:50:18.729Z,1.02
2022-09-30T11:53:20.310Z,1.65
2022-09-30T11:56:10.709Z,1.63
2022-09-30T11:58:42.894Z,1.23
2022-09-30T12:01:28.779Z,0.52
2022-09-30T12:04:19.338Z,1.58
2022-09-30T12:06:55.957Z,0.73
2022-09-30T12:09:27.471Z,2.08
2022-09-30T12:12:00.198Z,0.80
2022-09-30T12:14:35.583Z,2.22
2022-09-30T12:17:07.710Z,1.17
2022-09-30T12:19:46.869Z,1.17
2022-09-30T12:22:16.756Z,0.30
2022-09-30T12:24:45.711Z,1.20
2022-09-30T12:27:24.719Z,0.60
2022-09-30T12:30:18.852Z,1.95
2022-09-30T12:32:54.711Z,0.50
2022-09-30T12:35:36.438Z,5.50
2022-09-30T12:39:01.538Z,1.40
2022-09-30T12:41:48.195Z,1.45
2022-09-30T12:44:24.000Z,0.98
2022-09-30T12:46:50.663Z,1.60
2022-09-30T12:49:23.477Z,1.65
2022-09-30T12:51:54.811Z,0.80
2022-09-30T12:54:35.409Z,0.98
2022-09-30T12:57:07.561Z,0.98
2022-09-30T12:59:43.525Z,1.45
2022-09-30T13:02:36.764Z,2.00
2022-09-30T13:05:31.277Z,0.55
2022-09-30T13:08:06.866Z,1.70
2022-09-30T13:10:43.558Z,0.85
2022-09-30T13:13:10.428Z,1.00
2022-09-30T13:15:37.068Z,1.92
2022-09-30T13:18:26.728Z,1.25
2022-09-30T13:21:15.613Z,1.05
2022-09-30T13:23:48.976Z,0.98
2022-09-30T13:26:35.490Z,1.73
2022-09-30T13:29:02.570Z,1.40
2022-09-30T13:31:32.220Z,1.23
2022-09-30T13:34:02.009Z,1.10
2022-09-30T13:36:50.972Z,2.45
2022-09-30T13:39:31.654Z,0.63
2022-09-30T13:42:01.531Z,0.77
2022-09-30T13:45:04.147Z,0.98
2022-09-30T13:47:43.688Z,1.67
2022-09-30T13:50:16.110Z,0.73
2022-09-30T13:52:47.981Z,0.73
2022-09-30T13:55:22.510Z,1.55
2022-09-30T13:58:10.803Z,2.15
2022-09-30T14:00:58.445Z,2.22
2022-09-30T14:03:44.634Z,0.85
2022-09-30T14:06:36.982Z,2.03
2022-09-30T14:09:03.709Z,1.10
2022-09-30T14:11:42.361Z,1.00
2022-09-30T14:14:12.070Z,1.58
2022-09-30T14:17:00.852Z,0.98
2022-09-30T14:19:49.466Z,0.60
2022-09-30T14:22:16.929Z,1.08
2022-09-30T14:24:43.686Z,0.68
2022-09-30T14:27:36.018Z,1.23
2022-09-30T14:30:24.002Z,1.02
2022-09-30T14:33:03.618Z,1.25
2022-09-30T14:38:28.244Z,0.98
2022-09-30T14:40:57.901Z,1.08
2022-09-30T14:43:32.754Z,0.93
2022-09-30T14:46:10.900Z,1.52
2022-09-30T14:48:42.384Z,0.73
2022-09-30T14:51:13.076Z,0.65
2022-09-30T14:53:43.465Z,0.73
2022-09-30T14:56:22.520Z,0.73
2022-09-30T14:58:53.069Z,0.93
2022-09-30T15:01:25.709Z,0.95
2022-09-30T15:04:12.200Z,1.52
2022-09-30T15:06:43.271Z,0.60
2022-09-30T15:09:28.009Z,0.57
2022-09-30T15:11:55.293Z,0.90
2022-09-30T15:14:23.708Z,0.95
2022-09-30T15:16:53.672Z,0.63
2022-09-30T15:19:26.374Z,1.05
2022-09-30T15:22:02.215Z,0.60
2022-09-30T15:24:31.176Z,1.92
2022-09-30T15:26:59.987Z,1.27
2022-09-30T15:29:26.900Z,0.90
2022-09-30T15:31:58.717Z,1.23
2022-09-30T15:34:26.300Z,0.60
2022-09-30T15:37:10.541Z,1.23
2022-09-30T15:40:04.639Z,1.83
2022-09-30T15:42:35.310Z,1.00
2022-09-30T15:45:20.013Z,1.38
2022-09-30T15:48:02.422Z,0.65
2022-09-30T15:50:49.476Z,0.57
2022-09-30T15:53:18.234Z,0.90
2022-09-30T15:55:56.764Z,0.60
2022-09-30T15:58:26.706Z,0.57
2022-09-30T16:01:09.118Z,1.10
2022-09-30T16:03:36.482Z,1.48
2022-09-30T16:06:15.404Z,0.93
2022-09-30T16:08:48.709Z,0.98
2022-09-30T16:11:45.357Z,1.13
2022-09-30T16:14:27.479Z,2.40
2022-09-30T16:16:58.003Z,0.70
2022-09-30T16:19:26.154Z,1.97
2022-09-30T16:21:54.670Z,1.47
2022-09-30T16:24:21.363Z,1.77
2022-09-30T16:26:52.641Z,0.93
2022-09-30T16:29:19.565Z,2.37
2022-09-30T16:31:49.062Z,1.63
2022-09-30T16:34:25.295Z,1.83
2022-09-30T16:37:04.393Z,3.07
2022-09-30T16:39:31.507Z,3.83
2022-09-30T16:41:58.082Z,1.63
2022-09-30T16:44:24.907Z,1.97
2022-09-30T16:46:51.852Z,1.77
2022-09-30T16:49:19.624Z,2.07
2022-09-30T16:51:46.682Z,1.53
2022-09-30T16:54:13.547Z,5.03
2022-09-30T16:56:40.171Z,18.77
2022-09-30T16:59:17.177Z,17.83
2022-09-30T17:01:44.127Z,13.60
2022-09-30T17:04:14.006Z,22.23
2022-09-30T17:06:43.582Z,19.90
2022-09-30T17:09:10.201Z,15.47
2022-09-30T17:11:37.963Z,15.30
2022-09-30T17:14:05.525Z,20.03
2022-09-30T17:16:32.981Z,20.67
2022-09-30T17:18:59.946Z,18.40
2022-09-30T17:21:27.523Z,13.90
2022-09-30T17:23:55.526Z,9.90
2022-09-30T17:26:22.693Z,14.90
2022-09-30T17:28:49.322Z,14.37
2022-09-30T17:31:16.019Z,13.87
2022-09-30T17:33:42.908Z,14.93
2022-09-30T17:36:12.102Z,10.90
2022-09-30T17:38:39.557Z,9.03
2022-09-30T17:41:26.093Z,9.30
2022-09-30T17:43:52.878Z,10.50
2022-09-30T17:46:23.107Z,15.10
2022-09-30T17:48:54.418Z,14.30
2022-09-30T17:51:21.052Z,13.70
2022-09-30T17:53:48.226Z,14.73
2022-09-30T17:56:22.261Z,12.17
2022-09-30T17:58:51.157Z,11.37
2022-09-30T18:01:20.278Z,8.83
2022-09-30T18:03:47.369Z,6.77
2022-09-30T18:06:16.661Z,4.83
2022-09-30T18:08:43.655Z,7.10
2022-09-30T18:11:11.411Z,9.80
2022-09-30T18:13:38.002Z,9.80
2022-09-30T18:16:08.131Z,9.90
2022-09-30T18:18:36.246Z,10.63
2022-09-30T18:21:02.865Z,11.30
2022-09-30T18:23:29.533Z,11.77
2022-09-30T18:25:58.027Z,6.60
2022-09-30T18:28:24.787Z,8.73
2022-09-30T18:30:51.566Z,7.40
2022-09-30T18:33:21.533Z,8.23
2022-09-30T18:35:48.701Z,9.03
2022-09-30T18:38:15.363Z,9.23
2022-09-30T18:40:43.630Z,8.50
2022-09-30T18:43:13.933Z,7.43
2022-09-30T18:45:43.386Z,6.20
2022-09-30T18:48:10.881Z,6.60
2022-09-30T18:50:38.571Z,5.30
2022-09-30T18:53:09.618Z,5.83
2022-09-30T18:55:37.978Z,4.60
2022-09-30T18:58:05.163Z,4.40
2022-09-30T19:00:31.954Z,5.03
2022-09-30T19:02:58.584Z,7.13
2022-09-30T19:05:25.662Z,7.17
2022-09-30T19:07:53.997Z,7.50
2022-09-30T19:10:21.090Z,8.10
2022-09-30T19:12:48.112Z,12.37
2022-09-30T19:15:15.912Z,11.77
2022-09-30T19:17:43.610Z,9.80
2022-09-30T19:20:11.178Z,9.30
2022-09-30T19:22:37.812Z,10.17
2022-09-30T19:25:06.559Z,9.50
2022-09-30T19:27:35.661Z,8.07
2022-09-30T19:30:02.451Z,7.83
2022-09-30T19:32:34.182Z,8.40
2022-09-30T19:35:06.290Z,7.30
2022-09-30T19:37:34.205Z,6.27
2022-09-30T19:40:12.431Z,6.30
2022-09-30T19:42:47.444Z,5.10
2022-09-30T19:45:16.066Z,5.63
2022-09-30T19:47:42.764Z,5.43
2022-09-30T19:50:09.645Z,4.80
2022-09-30T19:52:42.069Z,3.37
2022-09-30T19:55:16.863Z,3.63
2022-09-30T19:57:43.897Z,4.03
2022-09-30T20:00:12.852Z,4.10
2022-09-30T20:02:39.654Z,6.10
2022-09-30T20:05:07.257Z,5.67
2022-09-30T20:07:34.945Z,3.10
2022-09-30T20:10:01.775Z,3.33
2022-09-30T20:12:28.999Z,3.60
2022-09-30T20:15:14.301Z,5.07
2022-09-30T20:17:40.978Z,3.20
2022-09-30T20:20:26.583Z,2.50
2022-09-30T20:22:53.240Z,3.97
2022-09-30T20:25:20.155Z,2.90
2022-09-30T20:27:51.330Z,4.47
2022-09-30T20:30:19.766Z,2.97
2022-09-30T20:32:46.400Z,2.87
2022-09-30T20:35:13.299Z,2.90
2022-09-30T20:37:40.859Z,2.97
2022-09-30T20:40:09.367Z,2.70
2022-09-30T20:42:38.751Z,4.77
2022-09-30T20:45:10.184Z,7.40
2022-09-30T20:47:38.450Z,2.80
2022-09-30T20:50:06.705Z,2.90
2022-09-30T20:52:33.648Z,3.17
2022-09-30T20:55:00.449Z,2.97
2022-09-30T20:57:31.306Z,3.10
2022-09-30T21:00:01.732Z,3.37
2022-09-30T21:02:28.885Z,3.37
2022-09-30T21:04:57.526Z,3.00
2022-09-30T21:07:25.215Z,2.67
2022-09-30T21:09:51.993Z,2.97
2022-09-30T21:12:18.908Z,3.47
2022-09-30T21:14:45.994Z,2.90
2022-09-30T21:17:12.646Z,3.50
2022-09-30T21:19:39.852Z,3.77
2022-09-30T21:22:07.088Z,2.40
2022-09-30T21:24:33.820Z,2.40
2022-09-30T21:27:01.467Z,3.23
2022-09-30T21:29:30.482Z,2.73
2022-09-30T21:31:57.226Z,4.40
2022-09-30T21:34:24.424Z,1.47
2022-09-30T21:36:51.409Z,1.57
2022-09-30T21:39:18.014Z,1.87
2022-09-30T21:41:45.555Z,3.20
2022-09-30T21:44:12.388Z,2.50
2022-09-30T21:46:39.118Z,2.47
2022-09-30T21:49:19.246Z,1.80
2022-09-30T21:51:46.755Z,2.40
2022-09-30T21:54:13.698Z,2.53
2022-09-30T21:56:42.269Z,3.47
2022-09-30T21:59:09.177Z,3.67
2022-09-30T22:01:37.339Z,2.90
2022-09-30T22:04:05.313Z,2.80
2022-09-30T22:06:32.384Z,3.30
2022-09-30T22:09:02.441Z,4.47
2022-09-30T22:11:31.091Z,3.03
2022-09-30T22:13:59.754Z,2.47
2022-09-30T22:16:29.715Z,2.90
2022-09-30T22:19:00.200Z,2.73
2022-09-30T22:21:33.479Z,2.90
2022-09-30T22:24:02.102Z,2.30
2022-09-30T22:26:30.002Z,2.10
2022-09-30T22:29:02.855Z,1.20
2022-09-30T22:31:31.979Z,2.17
2022-09-30T22:34:20.252Z,7.07
2022-09-30T22:37:05.500Z,3.23
2022-09-30T22:39:32.697Z,1.63
2022-09-30T22:42:00.124Z,1.40
2022-09-30T22:44:31.382Z,2.00
2022-09-30T22:47:00.282Z,1.73
2022-09-30T22:49:28.478Z,4.33
2022-09-30T22:51:56.405Z,4.03
2022-09-30T22:54:24.326Z,4.60
2022-09-30T22:56:50.987Z,3.03
2022-09-30T22:59:19.213Z,2.17
2022-09-30T23:01:46.832Z,1.93
2022-09-30T23:04:17.243Z,3.70
2022-09-30T23:06:46.486Z,1.83
2022-09-30T23:09:13.208Z,3.03
2022-09-30T23:11:42.170Z,2.10
2022-09-30T23:14:09.286Z,1.30
2022-09-30T23:16:36.030Z,1.33
2022-09-30T23:19:02.950Z,3.87
2022-09-30T23:21:29.709Z,2.17
2022-09-30T23:23:56.601Z,3.23
2022-09-30T23:26:25.371Z,1.50
2022-09-30T23:28:56.326Z,2.00
2022-09-30T23:31:23.145Z,2.40
2022-09-30T23:33:52.651Z,1.73
2022-09-30T23:36:29.127Z,2.00
2022-09-30T23:39:18.191Z,1.50
2022-09-30T23:41:46.478Z,2.30
2022-09-30T23:44:15.578Z,1.70
2022-09-30T23:47:02.364Z,2.23
2022-09-30T23:49:33.268Z,2.30
2022-09-30T23:51:59.874Z,2.40
2022-09-30T23:54:26.441Z,1.77
2022-09-30T23:56:53.314Z,1.33
2022-09-30T23:59:20.104Z,2.03
